New London, NC

2:57 PM EDT on September 03, 2015 (GMT -0400)
Uwharrie Point | | Change Station
CLOSE
Current Station
Personal Weather Station
Location: New London, NC
Elevation: 566 ft
Nearby Weather Stations

Elev 566 ft 35.46 °N, 80.09 °W | Updated 9 seconds ago

Partly Cloudy
Partly Cloudy
91.9 °F
Feels Like 97 °F
N
0.0
Wind Variable Wind from WSW
Gusts 0.0 mph

Today
High -- | Low -- °F
--% Chance of Precip.
Yesterday
High -- | Low -- °F
Precip. -- in
6:54 AM 7:44 PM
Waning Gibbous, 68% visible
Pressure 29.98 in
Visibility 10.0 miles
Clouds Scattered Clouds 5500 ft
Heat Index 97 °F
Dew Point 69 °F
Humidity 48%
Rainfall 0.00 in
Snow Depth Not available.
UV 7 out of 12
Pollen 9.00 out of 12
Air Quality Not available.
Flu Activity Not available.
METAR KVUJ 031835Z AUTO 29003KT 10SM SCT055 32/18 A2998 RMK AO2
Pressure 29.98 in
Visibility 10.0 miles
Clouds Scattered Clouds 5500 ft
Heat Index 97 °F
Dew Point 69 °F
Humidity 48%
Rainfall 0.00 in
Snow Depth Not available.
UV 7 out of 12
Pollen 9.00 out of 12
Air Quality Not available.
Flu Activity Not available.
METAR KVUJ 031835Z AUTO 29003KT 10SM SCT055 32/18 A2998 RMK AO2

10-Day Weather Forecast

×

Almanac

Astronomy

Sep. 03, 2015 Rise Set
Actual Time
Civil Twilight
Nautical Twilight
Astronomical Twilight
Moon
Length of Visible Light
Length of Day
Tomorrow will be .
, % of the Moon is Illuminated

Today's Extremes

State Highs State Lows

Community

WunderPhotos

Upload Photos

1,852,001 photos uploaded!

WunderBlogs® & News

Nearby

Air Quality

  Air Quality AQ Index Pollutant
Not available.

Snow Depth

Station Depth Elevation

Earthquake Activity

City Distance Mag. Time & Date
Minimum magnitude displayed is 2.5.

Coastal Water Temperatures

Place Temperature

Stations

Nearby Weather Stations

Station Location Temp. Windchill Dew Point Humidity Wind Precip. Elev Updated Type